Переход реки Сухона

Карта отелей и гостиниц, располагающихся рядом с аэропортом Переход реки Сухона :

Переход реки Сухона Вологодская область 59° 23' 45.8412" N, 41° 26' 44.6388" E
Код аэродрома ИКАО
HE7G
Код аэродрома RU
ХЕ7Г
Координаты
N59.39607° E041.44573°
Превышение над уровнем моря
130
Основная полоса
03/21
Курс магнитный
028,3/208,3
Длина основной ВПП
20
Ширина основной ВПП
20
Покрытие основной ВПП
Твёрдое
Освещение ВПП
Нет
Тип: 
Вертодром
Класс аэродрома: 
Принадлежность: 
ГА
Статус: 
Действующий
Сайт: 
E-mail аэродрома: 
Страна: 
Россия
Регион: 
Вологодская область
Город: 
Дополнительная информация: 
Оператор: нет данных. Используется "Газпромавиа" и Вологодским АП.


Найти трансфер

С помощью этой формы Вы можете найти трансфер из аэропорта Переход реки Сухона в город, аэропорт или вокзал:

Погода в аэропортах:

Авиационная погода в Сыктывкаре

Регион: 
Погода METAR: 
UUYY 212300Z 02004MPS 8000 -SHSN SCT008 BKN018CB M00/M01 Q1004 R36/29//51 NOSIG RMK QFE744/0992
Время наблюдения
2022-05-21T23:00:00Z
Температура C
0.0
Точка росы
-1.0
Направление ветра
20
Скорость ветра (узлы)
8
Метео видимость
4.97
Облачность
SCT
BKN
Нижняя граница облачности (футы)
800
1800
Явления погоды
-SHSN
Условия полета
MVFR
Аэропорт подробнее: 
SCT – разбросанная отдельная облачность; BKN – значительная (рассеянная, разорванная) облачность;
-SHSN - слабый ливневой снег;

Авиационная погода в Минске

Регион: 
Погода METAR: 
UMMS 212300Z 26002MPS 240V310 6000 -RA BKN003 OVC016 09/09 Q0998 NOSIG RMK QBB110
Время наблюдения
2022-05-21T23:00:00Z
Температура C
9.0
Точка росы
9.0
Направление ветра
260
Скорость ветра (узлы)
4
Метео видимость
3.73
Облачность
BKN
OVC
Нижняя граница облачности (футы)
300
1600
Явления погоды
-RA
Условия полета
LIFR
Аэропорт подробнее: 
BKN – значительная (рассеянная, разорванная) облачность; OVC – сплошная облачность;
-RA - слабый дождь;

Авиационная погода в Воронеже

Регион: 
Погода METAR: 
UUOO 212300Z 08004MPS 9999 -SHRA BKN011 BKN///CB 09/08 Q1000 R12/290155 NOSIG RMK QFE736
Время наблюдения
2022-05-21T23:00:00Z
Температура C
9.0
Точка росы
8.0
Направление ветра
80
Скорость ветра (узлы)
8
Метео видимость
6.21
Облачность
BKN
Нижняя граница облачности (футы)
1100
Явления погоды
-SHRA
Условия полета
MVFR
Аэропорт подробнее: 
BKN – значительная (рассеянная, разорванная) облачность;
-SHRA - слабый ливневой дождь;

Авиационная погода в Храброво

Регион: 
Погода METAR: 
UMKK 212300Z 29009MPS 9000 -RA BKN005 OVC017 09/09 Q1007 R24/290095 NOSIG RMK QBB150 OBST OBSC QFE754/1005
Время наблюдения
2022-05-21T23:00:00Z
Температура C
9.0
Точка росы
9.0
Направление ветра
290
Скорость ветра (узлы)
17
Метео видимость
5.59
Облачность
BKN
OVC
Нижняя граница облачности (футы)
500
1700
Явления погоды
-RA
Условия полета
IFR
Аэропорт подробнее: 
BKN – значительная (рассеянная, разорванная) облачность; OVC – сплошная облачность;
-RA - слабый дождь;